Time;durP1;ratioP1;P1;durP2;ratioP2;P2;SDS_P1;SDS_P2;PMS_P1;PMS_P2;Temp;Humidity;BMP_temperature;BMP_pressure;BME280_temperature;BME280_humidity;BME280_pressure;Samples;Min_cycle;Max_cycle;Signal;HPM_P1;HPM_P2
2022/02/10 00:25:29;;;;;;;13.95;7.60;;;2.00;73.50;;;;;;4973272;28;20042;-67
2022/02/10 00:35:59;;;;;;;14.25;7.85;;;2.00;72.50;;;;;;4975634;28;20401;-68
2022/02/10 00:38:30;;;;;;;13.65;8.07;;;2.00;72.20;;;;;;4975683;28;20093;-67
2022/02/10 00:40:56;;;;;;;13.13;7.82;;;2.00;72.00;;;;;;4975856;28;20974;-68
2022/02/10 00:43:21;;;;;;;14.25;7.75;;;2.00;72.00;;;;;;4977705;28;20047;-67
2022/02/10 00:45:47;;;;;;;12.00;8.05;;;1.90;72.00;;;;;;4978032;28;20543;-67
2022/02/10 00:48:14;;;;;;;13.35;7.82;;;1.90;72.10;;;;;;4974584;28;20027;-68
2022/02/10 00:50:43;;;;;;;13.35;8.45;;;1.90;72.20;;;;;;4974233;28;20050;-67
2022/02/10 00:55:38;;;;;;;14.25;8.88;;;1.80;72.50;;;;;;4991171;28;20042;-68
2022/02/10 00:58:07;;;;;;;13.40;8.57;;;1.70;72.40;;;;;;4977893;28;20041;-68
2022/02/10 01:11:22;;;;;;;13.50;7.88;;;1.60;72.90;;;;;;4973892;28;20324;-68
2022/02/10 01:29:33;;;;;;;12.60;7.15;;;1.60;72.80;;;;;;4975893;28;20702;-67
2022/02/10 01:30:07;;;;;;;11.82;7.07;;;1.50;72.60;;;;;;4974671;28;20169;-68
2022/02/10 01:32:32;;;;;;;11.82;6.40;;;1.60;73.10;;;;;;4975715;28;20038;-68
2022/02/10 01:34:58;;;;;;;13.75;7.85;;;1.50;73.10;;;;;;4976465;28;20576;-68
2022/02/10 01:37:24;;;;;;;10.90;7.18;;;1.50;73.00;;;;;;4975407;28;20060;-68
2022/02/10 01:40:00;;;;;;;13.95;7.07;;;1.50;73.10;;;;;;4973677;28;20041;-68
2022/02/10 02:04:10;;;;;;;10.98;7.00;;;1.50;72.40;;;;;;4974660;28;20041;-68
2022/02/10 02:06:43;;;;;;;15.18;7.43;;;1.50;72.40;;;;;;4975813;28;20421;-68
2022/02/10 02:09:12;;;;;;;10.30;6.90;;;1.50;72.30;;;;;;4974042;28;20046;-68
2022/02/10 02:11:40;;;;;;;11.68;6.70;;;1.50;72.30;;;;;;4976379;28;20038;-68
2022/02/10 02:14:14;;;;;;;9.45;6.28;;;1.40;72.40;;;;;;4975007;28;20125;-68
2022/02/10 02:16:51;;;;;;;11.83;6.30;;;1.40;72.90;;;;;;4972642;28;20161;-68
2022/02/10 02:19:17;;;;;;;12.10;6.22;;;1.40;73.00;;;;;;4975947;28;20465;-68
2022/02/10 02:21:44;;;;;;;9.20;6.15;;;1.30;72.60;;;;;;4975305;28;20182;-68
2022/02/10 02:24:13;;;;;;;11.30;6.22;;;1.30;72.70;;;;;;4975332;28;20611;-68
2022/02/10 02:26:40;;;;;;;11.02;6.28;;;1.30;72.70;;;;;;4986719;28;20135;-67
2022/02/10 02:29:09;;;;;;;12.65;6.90;;;1.30;72.90;;;;;;4974207;28;20038;-67
2022/02/10 02:31:42;;;;;;;16.23;7.43;;;1.20;72.70;;;;;;4972747;28;20034;-67
2022/02/10 02:39:55;;;;;;;11.13;6.60;;;1.20;73.40;;;;;;4977476;28;20031;-67
2022/02/10 03:06:50;;;;;;;9.05;6.13;;;1.00;73.60;;;;;;4979814;28;20417;-68
2022/02/10 03:09:23;;;;;;;11.30;6.22;;;1.00;73.40;;;;;;4978990;28;20445;-68
2022/02/10 03:11:48;;;;;;;13.95;6.35;;;1.00;73.40;;;;;;4982702;28;20413;-66
2022/02/10 03:14:19;;;;;;;10.75;6.68;;;1.00;73.60;;;;;;4980164;28;20506;-66
2022/02/10 05:19:30;;;;;;;11.80;6.50;;;1.30;73.80;;;;;;4976602;28;20062;-66
2022/02/10 05:32:55;;;;;;;6.50;4.78;;;1.60;75.00;;;;;;4977965;28;20097;-67
2022/02/10 05:38:31;;;;;;;7.78;4.60;;;1.70;75.50;;;;;;4974984;28;20038;-66
2022/02/10 05:45:49;;;;;;;6.72;4.80;;;1.90;74.60;;;;;;4977798;28;20039;-67
2022/02/10 05:55:54;;;;;;;10.15;5.68;;;2.10;75.20;;;;;;4975749;28;20330;-66
2022/02/10 05:58:31;;;;;;;8.38;5.28;;;2.20;74.00;;;;;;4977380;28;20031;-67
2022/02/10 06:52:35;;;;;;;9.82;5.28;;;2.70;74.50;;;;;;4979236;28;20035;-67
2022/02/10 07:49:14;;;;;;;;;;;;;;;;;;;;;
2022/02/10 07:51:51;;;;;;;9.43;6.50;;;3.10;75.10;;;;;;4979803;28;20034;-67
2022/02/10 07:54:42;;;;;;;16.02;7.68;;;3.10;75.50;;;;;;4976693;28;20026;-67
2022/02/10 08:56:54;;;;;;;12.82;6.00;;;5.30;74.80;;;;;;4979337;28;20134;-66
2022/02/10 10:02:04;;;;;;;7.00;4.40;;;8.30;70.20;;;;;;4978466;28;20109;-66
2022/02/10 10:04:38;;;;;;;6.53;4.20;;;8.40;69.90;;;;;;4975126;28;20061;-67
2022/02/10 10:07:47;;;;;;;;;;;8.60;70.40;;;;;;4977401;28;20548;-66
2022/02/10 10:15:59;;;;;;;8.55;4.65;;;9.00;69.10;;;;;;4975594;28;20409;-67
2022/02/10 10:24:00;;;;;;;7.85;4.53;;;9.30;68.60;;;;;;4979647;28;20039;-66
2022/02/10 10:27:08;;;;;;;11.25;4.97;;;9.40;68.10;;;;;;4978023;28;20034;-67
2022/02/10 10:53:06;;;;;;;7.57;3.30;;;10.70;64.60;;;;;;4970454;28;20031;-67
2022/02/10 10:55:55;;;;;;;7.97;3.80;;;10.90;64.60;;;;;;4973802;28;20045;-67
2022/02/10 10:59:01;;;;;;;9.60;4.07;;;11.00;63.80;;;;;;4981089;28;20050;-67
2022/02/10 11:03:39;;;;;;;7.07;3.50;;;11.10;63.40;;;;;;4978205;28;20035;-67
2022/02/10 11:38:41;;;;;;;6.78;3.80;;;12.10;59.60;;;;;;4978694;28;20033;-67
2022/02/10 11:43:51;;;;;;;7.78;3.70;;;12.20;60.30;;;;;;4979152;28;20034;-68
2022/02/10 14:15:14;;;;;;;8.80;3.45;;;13.80;57.20;;;;;;4978276;28;21498;-67
2022/02/10 14:17:48;;;;;;;4.93;3.38;;;13.70;57.20;;;;;;4977647;28;20531;-67
2022/02/10 14:28:31;;;;;;;6.80;3.03;;;13.80;56.50;;;;;;4976749;28;20039;-68
2022/02/10 14:30:58;;;;;;;6.75;3.10;;;13.80;57.00;;;;;;4980329;28;20062;-68
2022/02/10 14:33:28;;;;;;;4.75;3.17;;;13.80;56.70;;;;;;4981693;28;20365;-67
2022/02/10 14:36:16;;;;;;;10.15;3.28;;;13.80;56.60;;;;;;4981506;28;20035;-68
2022/02/10 15:16:58;;;;;;;9.43;2.85;;;13.10;57.90;;;;;;4977909;28;20413;-66
2022/02/10 15:55:11;;;;;;;9.50;3.17;;;12.10;58.60;;;;;;4979866;28;20434;-66
2022/02/10 16:11:11;;;;;;;6.83;3.40;;;11.60;58.40;;;;;;4975738;28;20117;-66
2022/02/10 16:16:53;;;;;;;7.80;4.13;;;11.40;58.60;;;;;;4978253;28;20049;-66
2022/02/10 16:19:07;;;;;;;7.25;3.80;;;11.20;58.80;;;;;;4978442;28;20121;-67
2022/02/10 16:21:39;;;;;;;7.03;4.15;;;11.20;58.90;;;;;;4980351;28;20466;-66
2022/02/10 16:24:15;;;;;;;8.55;4.50;;;11.10;59.00;;;;;;4980800;28;20038;-67
2022/02/10 16:26:53;;;;;;;9.48;5.15;;;11.00;59.20;;;;;;4977123;28;20035;-66
2022/02/10 16:29:24;;;;;;;11.77;7.35;;;10.90;59.30;;;;;;4978861;28;20149;-66
2022/02/10 16:31:50;;;;;;;7.35;5.55;;;10.90;59.60;;;;;;4979575;28;20030;-66
2022/02/10 16:34:16;;;;;;;10.45;6.20;;;10.80;59.80;;;;;;4979592;28;20046;-67
2022/02/10 16:36:43;;;;;;;8.40;5.00;;;10.70;60.00;;;;;;4977853;28;20146;-66
2022/02/10 16:39:09;;;;;;;8.73;5.10;;;10.60;60.20;;;;;;4979588;28;20038;-66
2022/02/10 16:41:35;;;;;;;7.25;4.38;;;10.60;60.50;;;;;;4977441;28;20039;-66
2022/02/10 16:44:01;;;;;;;8.43;5.10;;;10.50;60.70;;;;;;4980442;28;20042;-67
2022/02/10 16:46:26;;;;;;;11.23;4.60;;;10.50;61.00;;;;;;4978622;28;20046;-66
2022/02/10 16:48:52;;;;;;;6.80;4.57;;;10.40;61.00;;;;;;4980178;28;20457;-66
2022/02/10 16:51:20;;;;;;;6.03;4.53;;;10.40;61.30;;;;;;4977523;28;20035;-66
2022/02/10 16:53:52;;;;;;;8.75;5.00;;;10.30;61.30;;;;;;4977849;28;20037;-66
2022/02/10 16:56:25;;;;;;;9.75;4.82;;;10.30;61.50;;;;;;4979121;28;20041;-66
2022/02/10 17:01:40;;;;;;;7.93;5.00;;;10.20;61.70;;;;;;4979872;28;20045;-66
2022/02/10 17:04:32;;;;;;;7.72;4.97;;;10.10;61.80;;;;;;4979099;28;20041;-66
2022/02/10 17:29:25;;;;;;;10.70;5.55;;;9.90;62.90;;;;;;4980400;28;20726;-66
2022/02/10 17:32:09;;;;;;;9.55;5.07;;;9.90;63.00;;;;;;4980202;28;20069;-67
2022/02/10 17:37:27;;;;;;;9.85;5.10;;;9.90;63.10;;;;;;4977310;28;20059;-67
2022/02/10 17:45:55;;;;;;;9.60;5.38;;;9.80;63.40;;;;;;4976153;28;20034;-66
2022/02/10 17:53:51;;;;;;;8.90;4.85;;;9.70;63.60;;;;;;4977678;28;20453;-67
2022/02/10 17:56:17;;;;;;;8.07;4.97;;;9.70;63.60;;;;;;4977351;28;20051;-66
2022/02/10 17:58:43;;;;;;;11.07;5.97;;;9.70;63.90;;;;;;4978167;28;20034;-67
2022/02/10 18:01:09;;;;;;;7.68;4.38;;;9.70;64.10;;;;;;4977437;28;20026;-66
2022/02/10 18:03:35;;;;;;;7.32;4.00;;;9.60;64.10;;;;;;4978565;28;20057;-67
2022/02/10 18:14:22;;;;;;;7.40;4.85;;;9.60;64.10;;;;;;4980429;28;20498;-66
2022/02/10 18:16:52;;;;;;;8.82;4.28;;;9.50;64.00;;;;;;4978480;28;20421;-66
2022/02/10 18:19:24;;;;;;;7.55;4.63;;;9.50;64.10;;;;;;4979572;28;20112;-67
2022/02/10 18:22:19;;;;;;;6.63;3.88;;;9.50;64.10;;;;;;4981841;28;20039;-67
2022/02/10 18:27:21;;;;;;;6.80;4.05;;;9.50;63.70;;;;;;4982472;28;20062;-67
2022/02/10 19:10:05;;;;;;;4.53;3.20;;;9.60;62.80;;;;;;4980799;28;20038;-65
2022/02/10 19:12:42;;;;;;;3.20;2.55;;;9.60;62.80;;;;;;4982085;28;20042;-67
2022/02/10 19:15:16;;;;;;;6.90;2.67;;;9.60;62.80;;;;;;4981524;28;20089;-66
2022/02/10 19:17:42;;;;;;;4.13;2.60;;;9.60;63.60;;;;;;4982134;28;20093;-66
2022/02/10 19:20:08;;;;;;;5.28;2.38;;;9.60;62.70;;;;;;4981044;28;20042;-67
2022/02/10 19:22:34;;;;;;;4.00;2.58;;;9.60;62.70;;;;;;4981507;28;20561;-66
2022/02/10 19:25:00;;;;;;;3.72;2.67;;;9.60;62.60;;;;;;4981300;28;20386;-66
2022/02/10 19:27:26;;;;;;;4.95;3.20;;;9.60;62.60;;;;;;4981590;28;20040;-66
2022/02/10 19:29:57;;;;;;;4.15;3.28;;;9.60;62.60;;;;;;4980733;28;20038;-66
2022/02/10 19:32:26;;;;;;;6.05;3.30;;;9.60;62.60;;;;;;4981277;28;20053;-67
2022/02/10 19:34:54;;;;;;;7.22;3.30;;;9.60;62.60;;;;;;4980647;28;20487;-66
2022/02/10 19:37:20;;;;;;;6.35;3.28;;;9.60;62.60;;;;;;4980922;28;20431;-66
2022/02/10 19:39:52;;;;;;;3.55;2.88;;;9.60;62.60;;;;;;4982475;28;20038;-66
2022/02/10 19:42:17;;;;;;;4.05;2.72;;;9.60;62.60;;;;;;4980459;28;20057;-67
2022/02/10 19:44:43;;;;;;;3.67;2.72;;;9.60;62.70;;;;;;4993928;28;20038;-67
2022/02/10 19:47:09;;;;;;;7.75;3.10;;;9.60;62.70;;;;;;4995163;28;20061;-66
2022/02/10 19:49:37;;;;;;;6.07;2.88;;;9.60;62.60;;;;;;4982942;28;20551;-66
2022/02/10 19:52:04;;;;;;;5.32;2.72;;;9.50;62.50;;;;;;4982177;28;20035;-66
2022/02/10 19:54:36;;;;;;;5.97;3.25;;;9.50;62.60;;;;;;4980771;28;20501;-67
2022/02/10 19:57:02;;;;;;;4.38;3.00;;;9.50;62.50;;;;;;4979609;28;20030;-67
2022/02/10 19:59:30;;;;;;;5.00;3.08;;;9.50;62.60;;;;;;4981849;28;20382;-67
2022/02/10 20:01:56;;;;;;;5.68;3.03;;;9.50;62.70;;;;;;4981382;28;20038;-66
2022/02/10 20:04:24;;;;;;;4.22;3.10;;;9.50;62.60;;;;;;4982008;28;20026;-66
2022/02/10 20:06:51;;;;;;;4.13;2.90;;;9.50;62.70;;;;;;4980995;28;20086;-67
2022/02/10 20:09:17;;;;;;;5.43;2.75;;;9.40;62.60;;;;;;4981844;28;20037;-66
2022/02/10 20:11:43;;;;;;;4.43;2.70;;;9.40;62.70;;;;;;4981524;28;20121;-66
2022/02/10 20:14:08;;;;;;;5.68;3.33;;;9.40;62.70;;;;;;4980837;28;20473;-66
2022/02/10 20:16:34;;;;;;;7.50;3.72;;;9.40;62.70;;;;;;4981472;28;20035;-68
2022/02/10 20:19:02;;;;;;;6.70;3.55;;;9.40;62.80;;;;;;4981658;28;20043;-66
2022/02/10 20:21:29;;;;;;;6.90;3.67;;;9.40;62.90;;;;;;4984076;28;20034;-67
2022/02/10 20:23:55;;;;;;;8.23;4.00;;;9.40;62.90;;;;;;4980082;28;20098;-67
2022/02/10 20:26:21;;;;;;;11.48;4.25;;;9.30;63.00;;;;;;4980449;28;20031;-66
2022/02/10 20:28:47;;;;;;;9.63;4.93;;;9.30;63.10;;;;;;4977826;28;20219;-66
2022/02/10 20:31:14;;;;;;;10.23;5.03;;;9.30;63.10;;;;;;4979074;28;20117;-66
2022/02/10 20:33:40;;;;;;;9.63;4.97;;;9.30;63.20;;;;;;4977583;28;20240;-66
2022/02/10 20:36:07;;;;;;;10.77;5.07;;;9.30;63.20;;;;;;4981200;28;20045;-66
2022/02/10 20:38:41;;;;;;;10.95;5.22;;;9.30;63.30;;;;;;4969286;28;20125;-66
2022/02/10 20:41:11;;;;;;;9.02;4.07;;;9.30;63.30;;;;;;4974086;28;20926;-67
2022/02/10 20:43:38;;;;;;;6.35;3.45;;;9.30;63.30;;;;;;4974709;28;20081;-67
2022/02/10 20:46:07;;;;;;;5.13;3.17;;;9.30;63.30;;;;;;4980001;28;20074;-66
2022/02/10 20:48:35;;;;;;;5.68;3.30;;;9.30;63.40;;;;;;4974541;28;21953;-66
2022/02/10 20:51:03;;;;;;;6.60;3.17;;;9.30;63.40;;;;;;4973338;28;20034;-67
2022/02/10 20:53:30;;;;;;;7.55;3.47;;;9.30;63.40;;;;;;4975715;28;20118;-69
2022/02/10 20:55:59;;;;;;;6.30;3.28;;;9.30;63.40;;;;;;4979252;28;20034;-67
2022/02/10 20:58:26;;;;;;;7.00;3.20;;;9.30;63.50;;;;;;4974486;28;20050;-67
2022/02/10 21:00:54;;;;;;;6.88;3.35;;;9.30;63.50;;;;;;4978488;28;20109;-68
2022/02/10 21:03:23;;;;;;;5.03;3.30;;;9.30;63.40;;;;;;4974336;28;20434;-68
2022/02/10 21:05:51;;;;;;;6.15;3.78;;;9.30;63.60;;;;;;4975999;28;20030;-67
2022/02/10 21:08:33;;;;;;;8.57;4.50;;;9.30;63.60;;;;;;4977630;28;20559;-68
2022/02/10 21:11:01;;;;;;;9.00;4.93;;;9.30;63.60;;;;;;4977730;28;20038;-67
2022/02/10 21:13:29;;;;;;;9.63;4.97;;;9.30;63.70;;;;;;4973831;28;20035;-67
2022/02/10 21:15:55;;;;;;;8.68;5.38;;;9.20;63.80;;;;;;4976294;28;20505;-68
2022/02/10 21:18:20;;;;;;;12.25;6.53;;;9.20;64.00;;;;;;4976780;28;20046;-68
2022/02/10 21:20:48;;;;;;;9.82;5.68;;;9.20;64.10;;;;;;4977054;28;20049;-67
2022/02/10 21:23:28;;;;;;;9.55;5.60;;;9.20;64.50;;;;;;4978026;28;20402;-69
2022/02/10 21:25:56;;;;;;;12.80;5.57;;;9.20;64.60;;;;;;4977073;28;20027;-67
2022/02/10 21:28:27;;;;;;;10.32;5.88;;;9.20;64.80;;;;;;4974877;28;20097;-68
2022/02/10 21:30:56;;;;;;;11.95;6.72;;;9.10;65.00;;;;;;4979018;28;20033;-67
2022/02/10 21:38:48;;;;;;;9.85;5.80;;;9.10;65.50;;;;;;4979541;28;20034;-68
2022/02/10 22:21:03;;;;;;;9.63;5.78;;;9.00;66.50;;;;;;4975007;28;20034;-68
2022/02/10 22:23:30;;;;;;;10.10;5.82;;;9.00;66.70;;;;;;4977504;28;20031;-68
2022/02/10 22:26:01;;;;;;;12.73;6.20;;;9.00;66.80;;;;;;4976271;28;20027;-68
2022/02/10 22:34:12;;;;;;;12.77;6.20;;;9.00;66.90;;;;;;4974106;28;20457;-67
2022/02/10 22:36:41;;;;;;;12.32;6.75;;;9.00;67.00;;;;;;4974350;28;20042;-65
2022/02/10 22:39:06;;;;;;;11.25;5.88;;;9.00;67.10;;;;;;4973951;28;20064;-66
2022/02/10 22:41:33;;;;;;;12.32;5.70;;;9.00;67.10;;;;;;4973828;28;20488;-66
2022/02/10 22:44:00;;;;;;;8.55;5.28;;;9.00;67.10;;;;;;4979508;28;20042;-66
2022/02/10 22:46:27;;;;;;;9.63;6.18;;;9.00;67.10;;;;;;4977903;28;20041;-67
2022/02/10 22:48:53;;;;;;;8.10;5.70;;;9.00;67.20;;;;;;4992259;28;20030;-67
2022/02/10 22:51:24;;;;;;;10.65;5.43;;;9.00;67.30;;;;;;4977933;28;20042;-66
2022/02/10 22:53:50;;;;;;;8.70;5.10;;;9.00;67.30;;;;;;4982054;28;20128;-67
2022/02/10 22:56:18;;;;;;;5.63;4.50;;;9.00;67.30;;;;;;4984064;28;20057;-67
2022/02/10 22:58:44;;;;;;;7.90;4.93;;;9.00;67.30;;;;;;4979712;28;20142;-66
2022/02/10 23:01:11;;;;;;;8.52;4.70;;;9.00;67.30;;;;;;4981745;28;20045;-67
2022/02/10 23:03:39;;;;;;;7.70;4.72;;;9.00;67.30;;;;;;4985332;28;20047;-67
2022/02/10 23:06:06;;;;;;;10.35;5.25;;;9.10;67.40;;;;;;4982639;28;20030;-67
2022/02/10 23:08:32;;;;;;;7.28;4.35;;;9.10;67.40;;;;;;4981976;28;20031;-67
2022/02/10 23:10:58;;;;;;;10.07;4.50;;;9.00;67.40;;;;;;4980872;28;20402;-66
2022/02/10 23:13:28;;;;;;;6.72;4.38;;;9.00;67.30;;;;;;4979661;28;20165;-66
2022/02/10 23:15:56;;;;;;;11.70;4.70;;;9.00;67.50;;;;;;4975730;28;20035;-66
2022/02/10 23:18:24;;;;;;;6.47;3.92;;;9.00;67.60;;;;;;4979968;28;20566;-67
2022/02/10 23:20:51;;;;;;;8.10;4.70;;;9.00;67.80;;;;;;4978692;28;20045;-66
2022/02/10 23:23:19;;;;;;;9.75;4.55;;;9.00;68.00;;;;;;4979266;28;20121;-67
2022/02/10 23:25:47;;;;;;;7.47;4.38;;;9.00;68.20;;;;;;4980028;28;20449;-66
2022/02/10 23:28:16;;;;;;;8.70;4.40;;;9.00;68.50;;;;;;4979125;28;20023;-66
2022/02/10 23:30:46;;;;;;;8.10;4.13;;;9.00;68.80;;;;;;4979322;28;20490;-67
2022/02/10 23:33:26;;;;;;;8.73;4.88;;;9.00;69.00;;;;;;4980244;28;20101;-66
2022/02/10 23:38:27;;;;;;;10.38;4.85;;;9.00;69.50;;;;;;4978887;28;20438;-66
2022/02/10 23:43:27;;;;;;;9.20;4.75;;;9.00;69.90;;;;;;4980386;28;20407;-66
2022/02/10 23:45:53;;;;;;;9.98;4.55;;;9.00;70.00;;;;;;4981447;28;20065;-66
2022/02/10 23:48:18;;;;;;;11.20;4.72;;;9.00;70.40;;;;;;4980463;28;20104;-66
2022/02/10 23:50:44;;;;;;;8.48;4.68;;;9.00;70.70;;;;;;4981173;28;20647;-65
2022/02/10 23:53:10;;;;;;;9.90;4.57;;;9.00;70.60;;;;;;4979077;28;20077;-66
2022/02/10 23:55:39;;;;;;;5.90;4.50;;;9.00;71.00;;;;;;4977011;28;20038;-66
